Time;durP1;ratioP1;P1;durP2;ratioP2;P2;SDS_P1;SDS_P2;PMS_P1;PMS_P2;Temp;Humidity;BMP_temperature;BMP_pressure;BME280_temperature;BME280_humidity;BME280_pressure;Samples;Min_cycle;Max_cycle;Signal;HPM_P1;HPM_P2
2021/04/18 00:00:28;;;;;;;17.98;16.38;;;;;;;6.00;100.00;101156.81;4934763;29;20087;-87
2021/04/18 00:02:55;;;;;;;;;;;;;;;5.97;100.00;101155.34;4936394;29;20059;-85
2021/04/18 00:05:27;;;;;;;18.80;17.20;;;;;;;5.99;100.00;101141.16;4935650;29;19931;-85
2021/04/18 00:08:01;;;;;;;19.80;17.90;;;;;;;6.18;100.00;101140.81;4934876;29;20058;-85
2021/04/18 00:10:30;;;;;;;18.77;17.05;;;;;;;6.01;100.00;101140.00;4936062;29;20079;-85
2021/04/18 00:12:57;;;;;;;17.75;16.05;;;;;;;5.99;100.00;101146.44;4935098;29;20083;-86
2021/04/18 00:15:24;;;;;;;18.98;17.25;;;;;;;5.98;100.00;101145.59;4935970;29;20056;-86
2021/04/18 00:17:52;;;;;;;18.73;16.98;;;;;;;5.97;100.00;101141.34;4920267;29;20086;-86
2021/04/18 00:20:21;;;;;;;19.23;17.42;;;;;;;5.97;100.00;101144.78;4934905;29;20055;-85
2021/04/18 00:22:49;;;;;;;18.52;16.98;;;;;;;6.03;100.00;101145.13;4934739;29;20425;-87
2021/04/18 00:25:20;;;;;;;18.52;16.80;;;;;;;6.03;100.00;101145.94;4934850;29;20044;-86
2021/04/18 00:27:50;;;;;;;19.58;17.83;;;;;;;6.00;100.00;101143.63;4935201;29;20048;-86
2021/04/18 00:30:23;;;;;;;19.55;17.75;;;;;;;5.95;100.00;101141.47;4933368;29;20532;-87
2021/04/18 00:32:54;;;;;;;18.45;16.75;;;;;;;5.93;100.00;101137.34;4935573;29;20047;-87
2021/04/18 00:35:21;;;;;;;18.10;16.52;;;;;;;6.02;100.00;101140.81;4935431;29;20497;-87
2021/04/18 00:37:48;;;;;;;20.30;18.40;;;;;;;6.05;100.00;101136.06;4935175;29;20103;-87
2021/04/18 00:40:28;;;;;;;19.80;17.90;;;;;;;6.03;100.00;101127.50;4934792;29;20056;-87
2021/04/18 00:42:56;;;;;;;20.35;18.55;;;;;;;6.11;100.00;101127.50;4935577;29;20062;-87
2021/04/18 00:45:26;;;;;;;19.15;17.15;;;;;;;6.06;100.00;101128.97;4935782;29;20055;-86
2021/04/18 00:47:54;;;;;;;18.95;17.27;;;;;;;6.02;100.00;101128.50;4934869;29;20064;-86
2021/04/18 00:50:27;;;;;;;19.33;17.50;;;;;;;6.05;100.00;101129.94;4935062;29;20056;-87
2021/04/18 00:52:54;;;;;;;19.95;17.90;;;;;;;6.06;100.00;101119.25;4934828;29;20505;-87
2021/04/18 00:55:35;;;;;;;20.25;18.45;;;;;;;6.07;100.00;101122.69;4934677;29;21531;-87
2021/04/18 00:58:16;;;;;;;18.02;16.23;;;;;;;6.04;100.00;101109.84;4922501;29;20047;-87
2021/04/18 01:00:44;;;;;;;20.02;18.27;;;;;;;6.03;100.00;101111.66;4923054;29;20043;-86
2021/04/18 01:03:10;;;;;;;21.88;19.05;;;;;;;6.06;100.00;101118.44;4935336;29;20048;-87
2021/04/18 01:05:36;;;;;;;18.30;16.80;;;;;;;6.14;100.00;101115.75;4935326;29;20048;-86
2021/04/18 01:08:04;;;;;;;19.77;18.00;;;;;;;6.13;100.00;101119.38;4935764;29;20079;-87
2021/04/18 01:10:35;;;;;;;18.95;17.25;;;;;;;6.09;100.00;101113.63;4935041;29;20124;-87
2021/04/18 01:13:03;;;;;;;19.08;17.27;;;;;;;6.13;100.00;101104.38;4935080;29;20597;-86
2021/04/18 01:15:29;;;;;;;18.17;16.67;;;;;;;6.15;100.00;101112.16;4936372;29;20051;-86
2021/04/18 01:17:56;;;;;;;19.48;17.77;;;;;;;6.07;100.00;101110.31;4939471;29;20505;-87
2021/04/18 01:20:24;;;;;;;19.48;17.77;;;;;;;6.17;100.00;101108.34;4938494;29;20102;-87
2021/04/18 01:22:55;;;;;;;18.88;17.38;;;;;;;6.08;100.00;101098.81;4937983;29;20044;-87
2021/04/18 01:25:23;;;;;;;19.10;17.40;;;;;;;6.08;100.00;101095.31;4938260;29;20044;-87
2021/04/18 01:27:50;;;;;;;20.00;18.35;;;;;;;6.10;100.00;101093.34;4938659;29;20063;-84
2021/04/18 01:30:22;;;;;;;19.20;17.40;;;;;;;6.08;100.00;101100.59;4939303;29;20142;-85
2021/04/18 01:32:51;;;;;;;19.25;17.30;;;;;;;6.08;100.00;101096.19;4938682;29;20051;-86
2021/04/18 01:35:18;;;;;;;19.52;17.80;;;;;;;6.18;100.00;101094.16;4938220;29;20052;-84
2021/04/18 01:37:45;;;;;;;18.63;17.13;;;;;;;6.13;100.00;101096.47;4938610;29;20118;-85
2021/04/18 01:40:19;;;;;;;19.20;17.55;;;;;;;6.15;100.00;101091.88;4934144;29;20103;-85
2021/04/18 01:42:49;;;;;;;19.23;17.35;;;;;;;6.14;100.00;101094.66;4938922;29;20070;-85
2021/04/18 01:45:18;;;;;;;18.70;17.15;;;;;;;6.16;100.00;101093.50;4939117;29;20066;-84
2021/04/18 01:47:48;;;;;;;19.73;17.45;;;;;;;6.13;100.00;101098.28;4939096;29;20052;-85
2021/04/18 01:50:17;;;;;;;21.15;19.33;;;;;;;6.21;100.00;101098.28;4938796;29;20502;-85
2021/04/18 01:52:45;;;;;;;19.45;17.92;;;;;;;6.18;100.00;101091.53;4938173;29;20052;-85
2021/04/18 01:55:15;;;;;;;18.70;17.15;;;;;;;6.15;100.00;101083.94;4938525;29;20052;-85
2021/04/18 01:57:42;;;;;;;19.17;17.38;;;;;;;6.16;100.00;101087.41;4938297;29;20485;-84
2021/04/18 02:00:33;;;;;;;20.10;18.40;;;;;;;6.16;100.00;101080.31;4938859;29;20106;-85
2021/04/18 02:03:01;;;;;;;19.45;17.85;;;;;;;6.12;100.00;101081.66;4940288;29;20453;-84
2021/04/18 02:05:31;;;;;;;19.52;17.60;;;;;;;6.14;100.00;101077.03;4941303;29;20047;-84
2021/04/18 02:07:57;;;;;;;19.85;18.15;;;;;;;6.15;100.00;101075.22;4941596;29;20521;-90
2021/04/18 02:12:56;;;;;;;19.88;18.13;;;;;;;6.20;100.00;101064.97;4944087;29;20086;-84
2021/04/18 02:15:22;;;;;;;20.13;18.48;;;;;;;6.16;100.00;101061.03;4955063;29;20047;-85
2021/04/18 02:17:49;;;;;;;20.42;18.60;;;;;;;6.18;100.00;101066.97;4953666;29;20319;-85
2021/04/18 02:20:17;;;;;;;21.48;19.55;;;;;;;6.16;100.00;101063.66;4944694;29;20063;-85
2021/04/18 02:22:44;;;;;;;21.48;19.48;;;;;;;6.19;100.00;101061.50;4949811;28;20530;-85
2021/04/18 02:25:12;;;;;;;20.10;18.23;;;;;;;6.18;100.00;101053.78;4951628;28;20058;-85
2021/04/18 02:27:38;;;;;;;22.33;19.98;;;;;;;6.21;100.00;101060.53;4946077;28;20039;-85
2021/04/18 02:30:11;;;;;;;21.00;19.08;;;;;;;6.15;100.00;101068.13;4954379;29;20051;-85
2021/04/18 02:32:41;;;;;;;21.95;20.10;;;;;;;6.15;100.00;101060.22;4954483;29;20079;-85
2021/04/18 02:35:12;;;;;;;21.95;19.85;;;;;;;6.18;100.00;101072.25;4953388;29;20524;-84
2021/04/18 02:37:39;;;;;;;21.23;19.23;;;;;;;6.15;100.00;101076.03;4951086;29;20062;-85
2021/04/18 02:40:07;;;;;;;19.90;18.30;;;;;;;6.12;100.00;101081.66;4953749;28;20047;-87
2021/04/18 02:42:40;;;;;;;20.02;18.13;;;;;;;6.16;100.00;101079.50;4938872;29;20493;-86
2021/04/18 02:45:17;;;;;;;19.60;17.85;;;;;;;6.18;100.00;101082.78;4954898;29;20428;-85
2021/04/18 02:47:52;;;;;;;20.23;18.33;;;;;;;6.15;100.00;101083.94;4954044;29;20515;-85
2021/04/18 02:50:21;;;;;;;21.25;18.20;;;;;;;6.14;100.00;101073.56;4952914;29;20461;-85
2021/04/18 02:52:47;;;;;;;22.85;20.60;;;;;;;6.17;100.00;101073.22;4947754;29;20402;-84
2021/04/18 02:55:18;;;;;;;22.42;19.95;;;;;;;6.17;100.00;101071.44;4948731;29;20051;-87
2021/04/18 02:57:44;;;;;;;22.90;20.13;;;;;;;6.23;100.00;101069.91;4953292;29;20058;-84
2021/04/18 03:00:24;;;;;;;22.35;20.15;;;;;;;6.15;100.00;101065.50;4954465;29;20428;-87
2021/04/18 03:02:51;;;;;;;21.60;19.50;;;;;;;6.21;100.00;101055.25;4953493;29;20047;-87
2021/04/18 03:05:18;;;;;;;21.52;19.52;;;;;;;6.20;100.00;101049.13;4953425;29;20051;-85
2021/04/18 03:07:46;;;;;;;20.80;18.80;;;;;;;6.23;100.00;101048.81;4947992;29;20410;-85
2021/04/18 03:10:15;;;;;;;20.77;18.98;;;;;;;6.24;100.00;101047.00;4949182;29;20043;-86
2021/04/18 03:12:48;;;;;;;21.75;19.58;;;;;;;6.26;100.00;101053.75;4953822;29;20048;-84
2021/04/18 03:15:28;;;;;;;21.25;19.27;;;;;;;6.20;100.00;101051.78;4957395;28;20051;-87
2021/04/18 03:17:56;;;;;;;21.88;19.70;;;;;;;6.26;100.00;101066.13;4947412;29;20047;-85
2021/04/18 03:20:25;;;;;;;21.48;19.45;;;;;;;6.27;100.00;101052.78;4952340;29;20047;-86
2021/04/18 03:22:52;;;;;;;21.02;19.25;;;;;;;6.27;100.00;101039.56;4952474;29;20055;-84
2021/04/18 03:25:20;;;;;;;22.40;20.48;;;;;;;6.31;100.00;101040.06;4952455;29;20043;-86
2021/04/18 03:27:46;;;;;;;21.48;19.63;;;;;;;6.26;100.00;101029.19;4953515;29;20558;-85
2021/04/18 03:30:14;;;;;;;23.17;20.75;;;;;;;6.45;100.00;101026.16;4953929;29;20058;-84
2021/04/18 03:32:43;;;;;;;23.38;21.17;;;;;;;6.35;100.00;101023.69;4952892;29;20059;-86
2021/04/18 03:35:12;;;;;;;22.70;20.60;;;;;;;6.30;100.00;101026.06;4953611;29;20126;-84
2021/04/18 03:37:39;;;;;;;24.00;21.90;;;;;;;6.34;100.00;101023.88;4956356;28;20051;-85
2021/04/18 03:40:10;;;;;;;24.20;21.90;;;;;;;6.34;100.00;101026.53;4950292;29;20047;-85
2021/04/18 03:42:44;;;;;;;22.83;20.92;;;;;;;6.33;100.00;101025.72;4948275;29;20079;-85
2021/04/18 03:45:12;;;;;;;25.40;23.02;;;;;;;6.35;100.00;101018.44;4953273;29;20053;-85
2021/04/18 03:47:43;;;;;;;23.77;20.98;;;;;;;6.37;100.00;101013.81;4952265;29;20053;-85
2021/04/18 03:50:12;;;;;;;25.35;23.05;;;;;;;6.37;100.00;101008.53;4953204;29;20115;-85
2021/04/18 03:52:41;;;;;;;23.92;22.02;;;;;;;6.41;100.00;101017.78;4952500;29;20103;-86
2021/04/18 03:55:10;;;;;;;24.95;22.35;;;;;;;6.49;100.00;101019.53;4952551;29;20051;-85
2021/04/18 04:00:24;;;;;;;24.63;22.35;;;;;;;6.50;100.00;101021.16;4944851;29;20424;-84
2021/04/18 04:02:52;;;;;;;26.00;23.52;;;;;;;6.64;100.00;101030.19;4952654;29;20134;-85
2021/04/18 04:05:26;;;;;;;25.38;23.05;;;;;;;6.57;100.00;101023.97;4953150;29;20477;-86
2021/04/18 04:07:54;;;;;;;25.05;22.58;;;;;;;6.73;100.00;101026.53;4950940;29;20059;-85
2021/04/18 04:10:22;;;;;;;23.48;21.45;;;;;;;6.81;100.00;101033.59;4953257;29;20432;-85
2021/04/18 04:12:51;;;;;;;24.42;22.33;;;;;;;6.64;100.00;101040.75;4952784;29;20424;-85
2021/04/18 04:15:21;;;;;;;25.17;22.55;;;;;;;6.77;100.00;101051.56;4949284;29;20066;-85
2021/04/18 04:17:52;;;;;;;24.40;21.95;;;;;;;6.86;100.00;101044.44;4945137;29;20065;-85
2021/04/18 04:20:23;;;;;;;25.70;23.02;;;;;;;6.75;100.00;101043.03;4952790;29;20055;-85
2021/04/18 04:22:50;;;;;;;25.90;23.47;;;;;;;6.63;100.00;101039.94;4952672;29;20497;-85
2021/04/18 04:25:17;;;;;;;33.25;25.17;;;;;;;6.67;100.00;101042.22;4952500;29;20536;-86
2021/04/18 04:27:44;;;;;;;25.55;23.05;;;;;;;6.69;100.00;101035.78;4949639;28;20496;-86
2021/04/18 04:30:12;;;;;;;24.83;22.40;;;;;;;6.70;100.00;101042.69;4952702;28;20568;-85
2021/04/18 04:32:42;;;;;;;26.15;23.52;;;;;;;6.85;100.00;101045.44;4951706;29;20413;-85
2021/04/18 04:35:15;;;;;;;26.98;24.38;;;;;;;6.74;100.00;101049.28;4952139;29;20055;-85
2021/04/18 04:40:26;;;;;;;26.08;23.55;;;;;;;6.73;100.00;101052.91;4947951;29;20081;-85
2021/04/18 04:42:53;;;;;;;24.30;21.85;;;;;;;6.72;100.00;101053.91;4949253;29;20055;-85
2021/04/18 04:45:24;;;;;;;24.63;22.42;;;;;;;6.74;100.00;101044.00;4933593;29;20138;-86
2021/04/18 04:47:54;;;;;;;25.88;23.48;;;;;;;6.71;100.00;101054.91;4945063;29;20123;-85
2021/04/18 04:50:24;;;;;;;23.05;20.88;;;;;;;6.88;100.00;101048.56;4952539;28;20476;-85
2021/04/18 04:52:52;;;;;;;25.17;22.77;;;;;;;6.83;100.00;101042.94;4955464;29;20077;-86
2021/04/18 04:55:21;;;;;;;24.20;21.80;;;;;;;6.81;100.00;101060.81;4957044;29;20054;-86
2021/04/18 04:57:48;;;;;;;24.40;22.00;;;;;;;7.27;100.00;101058.22;4955754;28;20091;-85
2021/04/18 05:00:16;;;;;;;26.15;23.48;;;;;;;6.89;100.00;101054.66;4937784;29;20059;-85
2021/04/18 05:02:44;;;;;;;24.85;22.13;;;;;;;6.84;100.00;101059.66;4953630;28;20115;-85
2021/04/18 05:05:12;;;;;;;24.20;21.08;;;;;;;7.02;100.00;101052.28;4961107;28;20066;-86
2021/04/18 05:07:40;;;;;;;23.17;20.77;;;;;;;6.88;100.00;101056.47;4955454;28;20047;-86
2021/04/18 05:10:13;;;;;;;24.42;22.20;;;;;;;6.92;100.00;101053.47;4947565;29;20107;-86
2021/04/18 05:12:41;;;;;;;25.23;22.73;;;;;;;6.88;100.00;101053.00;4954775;29;20059;-86
2021/04/18 05:15:12;;;;;;;24.80;22.15;;;;;;;6.92;100.00;101062.22;4955673;29;20047;-85
2021/04/18 05:17:40;;;;;;;28.48;23.05;;;;;;;6.82;100.00;101057.16;4946666;29;20050;-85
2021/04/18 05:20:10;;;;;;;24.88;21.90;;;;;;;7.25;100.00;101057.56;4888910;28;20673;-86
2021/04/18 05:22:37;;;;;;;28.17;22.50;;;;;;;7.17;100.00;101047.06;4939433;29;20058;-85
2021/04/18 05:25:05;;;;;;;25.75;22.80;;;;;;;7.05;100.00;101057.22;4953674;28;20051;-85
2021/04/18 05:27:33;;;;;;;24.27;21.70;;;;;;;7.08;100.00;101056.00;5035473;23;20063;-86
2021/04/18 05:29:59;;;;;;;29.85;23.75;;;;;;;7.04;100.00;101060.81;4939062;29;20048;-86
2021/04/18 05:32:26;;;;;;;22.70;20.08;;;;;;;7.00;100.00;101051.63;4944608;29;20402;-84
2021/04/18 05:34:54;;;;;;;26.77;23.10;;;;;;;7.21;100.00;101051.00;4940620;29;20059;-84
2021/04/18 05:37:21;;;;;;;23.85;20.45;;;;;;;7.27;100.00;101052.94;4935868;29;20138;-84
2021/04/18 05:39:47;;;;;;;29.38;21.15;;;;;;;7.21;100.00;101052.81;4944450;29;20143;-85
2021/04/18 05:42:14;;;;;;;29.65;22.23;;;;;;;7.31;100.00;101053.41;4943759;29;20081;-84
2021/04/18 05:44:41;;;;;;;29.60;22.63;;;;;;;7.51;100.00;101051.13;4940361;29;20051;-85
2021/04/18 05:47:07;;;;;;;27.95;22.33;;;;;;;7.40;100.00;101030.38;4935835;29;20044;-85
2021/04/18 05:49:35;;;;;;;26.25;22.00;;;;;;;8.44;100.00;101034.84;4935548;29;20040;-84
2021/04/18 05:52:01;;;;;;;28.50;23.75;;;;;;;8.12;100.00;101025.41;4935336;29;20048;-85
2021/04/18 05:54:28;;;;;;;24.02;21.63;;;;;;;7.53;100.00;101035.88;4936221;29;20047;-85
2021/04/18 05:56:54;;;;;;;28.67;25.45;;;;;;;7.69;100.00;101041.03;4936139;29;20047;-85
2021/04/18 05:59:20;;;;;;;32.78;26.73;;;;;;;7.73;100.00;101039.69;4935641;29;20048;-84
2021/04/18 06:01:48;;;;;;;25.88;23.05;;;;;;;7.76;100.00;101039.31;4937030;29;20083;-85
2021/04/18 06:04:17;;;;;;;120.90;60.35;;;;;;;7.74;100.00;101045.78;4935044;29;20051;-85
2021/04/18 06:06:44;;;;;;;26.98;24.17;;;;;;;8.04;100.00;101044.00;4934514;29;20055;-85
2021/04/18 06:09:12;;;;;;;26.88;23.98;;;;;;;8.64;100.00;101043.03;4933070;29;20094;-84
2021/04/18 06:11:48;;;;;;;26.30;23.77;;;;;;;7.90;100.00;101050.13;4935644;29;20047;-85
2021/04/18 06:14:26;;;;;;;27.67;21.77;;;;;;;8.36;100.00;101042.03;4935063;29;20091;-85
2021/04/18 06:16:53;;;;;;;26.30;23.40;;;;;;;8.63;100.00;101041.38;4940148;29;20083;-84
2021/04/18 06:19:20;;;;;;;27.45;24.42;;;;;;;8.31;100.00;101036.44;4932825;29;20078;-85
2021/04/18 06:21:49;;;;;;;25.85;23.15;;;;;;;7.85;100.00;101044.53;4936414;29;20044;-84
2021/04/18 06:24:15;;;;;;;28.13;25.08;;;;;;;7.93;100.00;101042.66;4934703;29;20130;-84
2021/04/18 06:26:42;;;;;;;32.47;26.30;;;;;;;7.79;100.00;101044.25;4938977;29;20055;-85
2021/04/18 06:29:09;;;;;;;36.47;32.65;;;;;;;7.91;100.00;101042.00;4938000;29;20143;-85
2021/04/18 06:31:35;;;;;;;33.67;30.10;;;;;;;7.83;100.00;101049.19;4937765;29;20075;-84
2021/04/18 06:34:04;;;;;;;30.77;27.70;;;;;;;8.49;100.00;101047.50;4939366;29;20056;-85
2021/04/18 06:36:33;;;;;;;26.63;23.90;;;;;;;8.25;100.00;101044.09;4937895;29;20059;-85
2021/04/18 06:39:04;;;;;;;28.98;26.08;;;;;;;7.88;100.00;101041.53;4940652;29;20621;-85
2021/04/18 06:41:34;;;;;;;34.28;29.17;;;;;;;7.83;100.00;101043.88;4943306;29;20051;-85
2021/04/18 06:44:30;;;;;;;;;;;;;;;;;;;;;
2021/04/18 06:46:58;;;;;;;34.72;30.77;;;;;;;7.94;100.00;101057.50;4934871;29;20054;-84
2021/04/18 06:49:26;;;;;;;28.63;25.50;;;;;;;7.92;100.00;101067.44;4934344;29;20059;-84
2021/04/18 06:51:53;;;;;;;28.17;24.88;;;;;;;7.86;100.00;101065.50;4938500;29;20050;-85
2021/04/18 06:54:20;;;;;;;30.00;25.13;;;;;;;7.98;100.00;101079.13;4934832;29;20063;-84
2021/04/18 06:56:48;;;;;;;29.98;26.77;;;;;;;7.94;100.00;101077.84;4935010;29;20043;-85
2021/04/18 06:59:16;;;;;;;29.40;26.23;;;;;;;7.89;100.00;101069.63;4936729;29;20059;-86
2021/04/18 07:01:43;;;;;;;66.70;59.65;;;;;;;7.96;100.00;101073.22;4937694;29;20047;-85
2021/04/18 07:04:15;;;;;;;31.70;25.35;;;;;;;7.96;100.00;101078.50;4935719;29;20054;-85
2021/04/18 07:06:44;;;;;;;40.10;34.93;;;;;;;8.02;100.00;101078.59;4935292;29;20044;-85
2021/04/18 07:09:10;;;;;;;30.42;27.05;;;;;;;8.15;100.00;101066.56;4936592;29;20299;-84
2021/04/18 07:11:45;;;;;;;48.35;43.25;;;;;;;8.02;100.00;101064.56;4932709;29;20060;-84
2021/04/18 07:14:26;;;;;;;43.45;37.75;;;;;;;8.14;100.00;101070.19;4928184;29;20081;-85
2021/04/18 07:16:54;;;;;;;49.55;41.63;;;;;;;8.18;100.00;101071.50;4929103;29;20074;-85
2021/04/18 07:19:26;;;;;;;37.33;31.38;;;;;;;8.31;100.00;101065.56;4921642;29;20062;-85
2021/04/18 07:21:57;;;;;;;37.55;27.95;;;;;;;8.04;100.00;101075.75;4929009;29;20523;-85
2021/04/18 07:24:26;;;;;;;42.00;37.78;;;;;;;8.07;100.00;101067.44;4926597;29;20162;-84
2021/04/18 07:26:56;;;;;;;60.72;54.67;;;;;;;8.08;100.00;101082.34;4932962;29;20528;-84
2021/04/18 07:29:29;;;;;;;26.50;23.88;;;;;;;8.30;100.00;101087.75;4928540;29;20056;-85
2021/04/18 07:31:58;;;;;;;44.90;40.08;;;;;;;8.38;100.00;101085.88;4927942;29;20066;-85
2021/04/18 07:34:25;;;;;;;75.10;67.50;;;;;;;8.26;100.00;101093.41;4934991;29;20437;-85
2021/04/18 07:37:08;;;;;;;46.85;42.22;;;;;;;8.25;100.00;101099.69;4928557;29;20052;-85
2021/04/18 07:39:43;;;;;;;41.03;36.67;;;;;;;8.48;100.00;101104.94;4929075;29;20051;-84
2021/04/18 07:42:37;;;;;;;32.72;28.65;;;;;;;8.36;100.00;101097.59;4937821;29;20421;-85
2021/04/18 07:45:06;;;;;;;33.25;29.85;;;;;;;8.32;100.00;101102.44;4928611;29;20107;-84
2021/04/18 07:47:38;;;;;;;47.40;42.35;;;;;;;8.34;100.00;101100.41;4928406;29;20047;-84
2021/04/18 07:50:07;;;;;;;44.33;39.70;;;;;;;8.39;100.00;101111.31;4931869;29;20059;-86
2021/04/18 07:52:36;;;;;;;47.60;42.72;;;;;;;8.44;100.00;101108.97;4936635;29;20117;-86
2021/04/18 09:37:47;;;;;;;49.83;45.42;;;;;;;9.76;100.00;101026.59;5768283;23;20051;-81
2021/04/18 09:40:38;;;;;;;59.03;52.97;;;;;;;9.49;100.00;101033.50;4945834;29;20059;-81
2021/04/18 09:43:17;;;;;;;56.22;50.60;;;;;;;9.56;100.00;101025.59;4951331;29;20129;-83
2021/04/18 09:46:02;;;;;;;54.22;49.03;;;;;;;9.70;100.00;101019.41;4952301;29;20065;-79
2021/04/18 09:48:30;;;;;;;55.88;50.28;;;;;;;9.68;100.00;101017.94;4951038;29;20061;-83
2021/04/18 09:51:02;;;;;;;60.55;54.13;;;;;;;9.85;100.00;101028.06;4952969;29;20074;-82
2021/04/18 09:54:08;;;;;;;58.00;52.15;;;;;;;9.57;100.00;101027.25;4947801;29;20129;-87
2021/04/18 09:56:38;;;;;;;59.63;54.17;;;;;;;9.88;100.00;101026.06;4947938;29;20058;-80
2021/04/18 09:59:26;;;;;;;61.17;55.38;;;;;;;9.77;100.00;101024.75;4951211;29;20055;-82
2021/04/18 10:02:08;;;;;;;61.88;55.75;;;;;;;9.72;100.00;101032.47;4945342;29;20054;-80
2021/04/18 10:04:36;;;;;;;54.95;49.78;;;;;;;9.57;100.00;101037.88;4950983;29;20057;-81
2021/04/18 10:07:04;;;;;;;60.63;54.92;;;;;;;9.39;100.00;101041.78;4951835;29;20101;-80
2021/04/18 10:10:05;;;;;;;52.47;47.47;;;;;;;9.32;100.00;101055.97;4947326;29;20047;-81
2021/04/18 10:12:46;;;;;;;56.95;51.47;;;;;;;9.17;100.00;101056.88;4952481;29;20054;-87
2021/04/18 10:15:18;;;;;;;51.90;47.10;;;;;;;9.30;100.00;101048.22;4949845;28;20055;-88
2021/04/18 10:17:46;;;;;;;59.83;53.95;;;;;;;9.40;100.00;101047.91;4950830;29;20058;-88
2021/04/18 10:23:20;;;;;;;67.72;55.85;;;;;;;9.22;100.00;101044.88;4949653;29;20153;-86
2021/04/18 10:26:02;;;;;;;60.17;53.97;;;;;;;9.21;100.00;101043.25;4950009;29;20055;-88
2021/04/18 10:28:33;;;;;;;60.25;54.28;;;;;;;9.32;100.00;101037.41;4944135;29;20133;-87
2021/04/18 10:31:00;;;;;;;53.50;48.20;;;;;;;9.28;100.00;101036.97;4950553;29;20065;-86
2021/04/18 10:33:29;;;;;;;56.83;50.92;;;;;;;9.45;100.00;101039.41;4947227;29;20059;-87
2021/04/18 10:35:56;;;;;;;48.00;43.25;;;;;;;9.94;100.00;101042.03;4945385;29;20924;-88
2021/04/18 10:38:33;;;;;;;48.20;43.97;;;;;;;9.74;100.00;101044.53;4948966;28;20101;-88
2021/04/18 10:41:18;;;;;;;56.03;50.53;;;;;;;9.64;100.00;101047.50;4949593;29;20456;-87
2021/04/18 10:43:54;;;;;;;55.05;49.40;;;;;;;9.32;100.00;101040.06;4950178;29;20074;-87
2021/04/18 10:46:31;;;;;;;54.03;48.83;;;;;;;9.38;100.00;101049.94;4950542;29;20061;-88
2021/04/18 10:49:00;;;;;;;50.13;45.42;;;;;;;9.71;100.00;101058.16;4950207;28;20070;-87
2021/04/18 10:51:30;;;;;;;55.10;49.58;;;;;;;9.40;100.00;101058.50;4945456;29;20496;-89
2021/04/18 10:54:03;;;;;;;61.40;52.80;;;;;;;9.19;100.00;101051.38;4942425;29;20061;-88
2021/04/18 10:56:33;;;;;;;56.60;50.33;;;;;;;9.14;100.00;101056.44;4952512;29;20051;-88
2021/04/18 10:59:08;;;;;;;63.20;53.83;;;;;;;9.03;100.00;101057.72;4948966;29;20070;-88
2021/04/18 11:01:38;;;;;;;59.80;52.03;;;;;;;9.09;100.00;101067.59;4945335;29;20513;-88
2021/04/18 11:04:08;;;;;;;55.28;49.38;;;;;;;10.71;100.00;101062.31;4946068;29;20511;-88
2021/04/18 11:06:36;;;;;;;58.20;49.67;;;;;;;9.69;100.00;101068.16;4946010;29;20516;-87
2021/04/18 11:09:03;;;;;;;54.60;48.45;;;;;;;9.16;100.00;101071.13;4952500;29;20065;-88
2021/04/18 11:11:33;;;;;;;53.90;48.17;;;;;;;9.06;100.00;101067.97;4954031;28;20043;-87
2021/04/18 11:14:00;;;;;;;53.22;48.17;;;;;;;9.12;100.00;101071.69;4946836;29;20055;-87
2021/04/18 11:16:27;;;;;;;53.40;48.13;;;;;;;9.09;100.00;101066.78;4946212;29;20086;-87
2021/04/18 11:21:35;;;;;;;53.20;47.90;;;;;;;9.51;100.00;101071.25;4951598;29;20056;-88
2021/04/18 11:24:03;;;;;;;54.38;48.97;;;;;;;9.21;100.00;101067.91;4954114;29;20146;-87
2021/04/18 11:26:32;;;;;;;55.00;49.22;;;;;;;8.89;100.00;101063.88;4950673;29;20089;-87
2021/04/18 11:29:03;;;;;;;64.30;57.55;;;;;;;8.92;100.00;101066.16;4954450;29;20530;-87
2021/04/18 11:31:32;;;;;;;61.42;55.05;;;;;;;8.93;100.00;101073.13;4953423;29;20114;-87
2021/04/18 11:33:59;;;;;;;58.95;53.05;;;;;;;8.88;100.00;101067.56;4954322;29;20677;-87
2021/04/18 11:36:30;;;;;;;54.90;49.25;;;;;;;8.83;100.00;101068.09;4948286;29;20051;-88
2021/04/18 11:39:21;;;;;;;54.15;48.65;;;;;;;8.87;100.00;101061.44;4955479;29;20059;-86
2021/04/18 11:41:54;;;;;;;56.15;50.85;;;;;;;8.98;100.00;101078.66;4955636;29;20465;-87
2021/04/18 11:44:24;;;;;;;53.85;48.17;;;;;;;8.87;100.00;101060.63;4953058;29;20090;-88
2021/04/18 12:47:33;;;;;;;26.88;24.67;;;;;;;10.40;100.00;101038.84;5791467;23;20039;-88
2021/04/18 12:50:00;;;;;;;30.65;27.92;;;;;;;10.17;100.00;101043.59;4947046;29;20040;-88
2021/04/18 12:52:31;;;;;;;29.55;27.02;;;;;;;9.78;100.00;101047.63;4953109;29;20110;-88
2021/04/18 12:54:59;;;;;;;29.98;26.88;;;;;;;9.61;100.00;101045.22;4958031;28;20059;-87
2021/04/18 12:57:30;;;;;;;29.40;26.90;;;;;;;9.89;100.00;101049.72;4953952;29;20059;-88
2021/04/18 12:59:57;;;;;;;30.40;27.30;;;;;;;9.73;100.00;101034.94;4954951;28;20055;-87
2021/04/18 13:02:30;;;;;;;26.50;24.10;;;;;;;9.99;100.00;101044.09;4956799;28;20050;-88
2021/04/18 13:05:10;;;;;;;26.48;24.08;;;;;;;9.95;100.00;101038.34;4947419;28;20060;-88
2021/04/18 13:07:39;;;;;;;28.85;26.42;;;;;;;9.88;100.00;101034.03;4943421;28;20044;-88
2021/04/18 13:10:09;;;;;;;29.00;26.75;;;;;;;10.07;100.00;101028.81;4942130;28;20059;-88
2021/04/18 13:12:43;;;;;;;36.65;33.38;;;;;;;9.88;100.00;101034.84;4952964;29;20090;-88
2021/04/18 13:15:16;;;;;;;27.20;24.88;;;;;;;10.35;100.00;101035.97;4960483;28;20070;-88
2021/04/18 13:17:49;;;;;;;30.15;27.48;;;;;;;9.97;100.00;101024.91;4957983;28;20051;-88
2021/04/18 13:20:18;;;;;;;;;;;;;;;10.17;100.00;101040.97;4961523;28;20050;-88
2021/04/18 13:22:55;;;;;;;27.98;25.67;;;;;;;10.00;100.00;101043.91;4956146;28;20315;-88
2021/04/18 13:25:23;;;;;;;32.95;30.15;;;;;;;9.65;100.00;101053.63;4950443;29;20055;-87
2021/04/18 13:27:50;;;;;;;28.48;25.85;;;;;;;9.64;100.00;101057.28;4956650;28;20085;-88
2021/04/18 13:30:21;;;;;;;34.05;30.60;;;;;;;9.73;100.00;101056.16;4956921;28;20055;-88
2021/04/18 13:32:52;;;;;;;30.33;27.67;;;;;;;9.63;100.00;101050.34;4950878;28;20043;-87
2021/04/18 13:35:19;;;;;;;32.55;29.65;;;;;;;9.55;100.00;101042.53;4963129;28;20061;-88
2021/04/18 13:37:49;;;;;;;34.13;30.55;;;;;;;9.57;100.00;101046.63;4953099;28;20456;-87
2021/04/18 13:40:17;;;;;;;30.25;27.48;;;;;;;9.69;100.00;101049.59;4953834;29;20050;-88
2021/04/18 13:42:47;;;;;;;32.63;29.45;;;;;;;9.33;100.00;101058.44;4946158;29;20066;-88
2021/04/18 13:45:17;;;;;;;27.45;25.08;;;;;;;9.51;100.00;101065.97;4951916;29;20043;-88
2021/04/18 13:47:44;;;;;;;29.38;26.67;;;;;;;9.24;100.00;101064.88;4961517;28;20469;-88
2021/04/18 13:50:15;;;;;;;33.78;30.65;;;;;;;9.35;100.00;101071.53;4948906;28;20051;-88
2021/04/18 13:52:43;;;;;;;23.05;21.33;;;;;;;9.19;100.00;101083.16;4954019;28;20047;-88
2021/04/18 13:55:16;;;;;;;27.52;25.00;;;;;;;9.21;100.00;101085.66;4956822;28;20059;-86
2021/04/18 13:57:52;;;;;;;35.15;31.88;;;;;;;9.02;100.00;101087.91;4944151;29;20130;-87
2021/04/18 14:00:20;;;;;;;35.88;32.63;;;;;;;9.02;100.00;101092.38;4941041;29;20097;-87
2021/04/18 14:02:50;;;;;;;46.58;42.05;;;;;;;8.91;100.00;101089.19;4944359;29;20051;-86
2021/04/18 14:05:32;;;;;;;31.92;28.98;;;;;;;8.83;100.00;101099.06;4946408;29;20473;-87
2021/04/18 14:08:08;;;;;;;41.35;37.28;;;;;;;8.95;100.00;101103.69;4931695;29;20504;-87
2021/04/18 14:10:36;;;;;;;31.55;28.65;;;;;;;9.04;100.00;101100.94;4953026;28;20057;-87
2021/04/18 14:18:35;;;;;;;67.38;60.40;;;;;;;8.76;100.00;101098.16;4946634;28;20285;-87
2021/04/18 14:21:28;;;;;;;28.13;25.02;;;;;;;8.64;100.00;101095.16;4943089;28;20051;-87
2021/04/18 14:23:55;;;;;;;70.55;60.08;;;;;;;8.58;100.00;101104.66;4944794;28;20134;-87
2021/04/18 14:26:23;;;;;;;32.42;25.80;;;;;;;8.55;100.00;101107.66;4942197;29;20063;-87
2021/04/18 14:28:49;;;;;;;67.20;55.58;;;;;;;8.55;100.00;101112.16;4946315;29;20449;-86